sensor_id;sensor_type;location;lat;lon;timestamp;P1;durP1;ratioP1;P2;durP2;ratioP2
1975;SDS011;988;48.016;7.800;2023-07-09T00:01:36;15.20;;;14.30;;
1975;SDS011;988;48.016;7.800;2023-07-09T00:04:02;15.60;;;14.50;;
1975;SDS011;988;48.016;7.800;2023-07-09T00:06:28;16.07;;;15.00;;
1975;SDS011;988;48.016;7.800;2023-07-09T00:08:54;16.37;;;15.07;;
1975;SDS011;988;48.016;7.800;2023-07-09T00:11:20;15.30;;;14.30;;
1975;SDS011;988;48.016;7.800;2023-07-09T00:13:45;16.63;;;15.20;;
1975;SDS011;988;48.016;7.800;2023-07-09T00:16:15;16.53;;;15.33;;
1975;SDS011;988;48.016;7.800;2023-07-09T00:18:45;15.77;;;14.67;;
1975;SDS011;988;48.016;7.800;2023-07-09T00:21:13;16.17;;;15.03;;
1975;SDS011;988;48.016;7.800;2023-07-09T00:23:40;17.07;;;15.80;;
1975;SDS011;988;48.016;7.800;2023-07-09T00:26:10;16.33;;;15.33;;
1975;SDS011;988;48.016;7.800;2023-07-09T00:28:38;16.50;;;15.40;;
1975;SDS011;988;48.016;7.800;2023-07-09T00:31:07;16.07;;;15.13;;
1975;SDS011;988;48.016;7.800;2023-07-09T00:33:41;15.53;;;14.60;;
1975;SDS011;988;48.016;7.800;2023-07-09T00:36:29;16.00;;;14.70;;
1975;SDS011;988;48.016;7.800;2023-07-09T00:38:59;15.47;;;14.53;;
1975;SDS011;988;48.016;7.800;2023-07-09T00:41:29;15.63;;;14.63;;
1975;SDS011;988;48.016;7.800;2023-07-09T00:43:58;15.33;;;14.43;;
1975;SDS011;988;48.016;7.800;2023-07-09T00:49:12;16.23;;;14.70;;
1975;SDS011;988;48.016;7.800;2023-07-09T00:51:42;15.70;;;14.50;;
1975;SDS011;988;48.016;7.800;2023-07-09T00:54:18;14.40;;;13.20;;
1975;SDS011;988;48.016;7.800;2023-07-09T00:56:50;14.90;;;13.57;;
1975;SDS011;988;48.016;7.800;2023-07-09T00:59:21;13.83;;;12.70;;
1975;SDS011;988;48.016;7.800;2023-07-09T01:01:51;14.20;;;13.30;;
1975;SDS011;988;48.016;7.800;2023-07-09T01:04:19;13.47;;;12.67;;
1975;SDS011;988;48.016;7.800;2023-07-09T01:06:53;14.33;;;13.43;;
1975;SDS011;988;48.016;7.800;2023-07-09T01:09:20;15.83;;;14.63;;
1975;SDS011;988;48.016;7.800;2023-07-09T01:11:47;14.43;;;13.43;;
1975;SDS011;988;48.016;7.800;2023-07-09T01:14:14;14.40;;;13.50;;
1975;SDS011;988;48.016;7.800;2023-07-09T01:16:52;14.83;;;13.83;;
1975;SDS011;988;48.016;7.800;2023-07-09T01:19:26;14.70;;;13.70;;
1975;SDS011;988;48.016;7.800;2023-07-09T01:21:55;15.67;;;14.50;;
1975;SDS011;988;48.016;7.800;2023-07-09T01:27:11;15.93;;;14.70;;
1975;SDS011;988;48.016;7.800;2023-07-09T01:29:37;15.10;;;14.20;;
1975;SDS011;988;48.016;7.800;2023-07-09T01:32:03;15.00;;;14.03;;
1975;SDS011;988;48.016;7.800;2023-07-09T01:34:29;14.37;;;13.53;;
1975;SDS011;988;48.016;7.800;2023-07-09T01:36:55;15.73;;;14.83;;
1975;SDS011;988;48.016;7.800;2023-07-09T01:39:21;15.50;;;14.57;;
1975;SDS011;988;48.016;7.800;2023-07-09T01:41:48;16.10;;;14.67;;
1975;SDS011;988;48.016;7.800;2023-07-09T01:44:13;15.77;;;14.77;;
1975;SDS011;988;48.016;7.800;2023-07-09T01:46:39;16.17;;;14.97;;
1975;SDS011;988;48.016;7.800;2023-07-09T01:49:06;16.10;;;14.90;;
1975;SDS011;988;48.016;7.800;2023-07-09T01:51:33;15.50;;;14.50;;
1975;SDS011;988;48.016;7.800;2023-07-09T01:54:01;16.37;;;15.13;;
1975;SDS011;988;48.016;7.800;2023-07-09T01:56:27;16.17;;;15.13;;
1975;SDS011;988;48.016;7.800;2023-07-09T01:58:55;16.00;;;14.93;;
1975;SDS011;988;48.016;7.800;2023-07-09T02:01:27;15.80;;;14.80;;
1975;SDS011;988;48.016;7.800;2023-07-09T02:03:53;15.53;;;14.43;;
1975;SDS011;988;48.016;7.800;2023-07-09T02:06:19;15.70;;;14.70;;
1975;SDS011;988;48.016;7.800;2023-07-09T02:08:45;15.53;;;14.60;;
1975;SDS011;988;48.016;7.800;2023-07-09T02:11:11;16.03;;;14.67;;
1975;SDS011;988;48.016;7.800;2023-07-09T02:13:37;15.60;;;14.50;;
1975;SDS011;988;48.016;7.800;2023-07-09T02:16:02;15.73;;;14.73;;
1975;SDS011;988;48.016;7.800;2023-07-09T02:18:28;15.00;;;14.10;;
1975;SDS011;988;48.016;7.800;2023-07-09T02:20:54;15.90;;;14.60;;
1975;SDS011;988;48.016;7.800;2023-07-09T02:23:20;15.10;;;14.10;;
1975;SDS011;988;48.016;7.800;2023-07-09T02:25:50;16.00;;;14.90;;
1975;SDS011;988;48.016;7.800;2023-07-09T02:28:16;16.13;;;15.00;;
1975;SDS011;988;48.016;7.800;2023-07-09T02:30:41;16.00;;;14.90;;
1975;SDS011;988;48.016;7.800;2023-07-09T02:33:07;16.23;;;15.10;;
1975;SDS011;988;48.016;7.800;2023-07-09T02:35:32;15.27;;;14.20;;
1975;SDS011;988;48.016;7.800;2023-07-09T02:37:59;14.90;;;14.00;;
1975;SDS011;988;48.016;7.800;2023-07-09T02:40:24;15.63;;;14.53;;
1975;SDS011;988;48.016;7.800;2023-07-09T02:42:50;15.73;;;14.63;;
1975;SDS011;988;48.016;7.800;2023-07-09T02:45:16;14.93;;;14.03;;
1975;SDS011;988;48.016;7.800;2023-07-09T02:47:41;15.43;;;14.53;;
1975;SDS011;988;48.016;7.800;2023-07-09T02:50:07;16.47;;;15.27;;
1975;SDS011;988;48.016;7.800;2023-07-09T02:52:33;15.53;;;14.33;;
1975;SDS011;988;48.016;7.800;2023-07-09T02:54:58;15.30;;;14.27;;
1975;SDS011;988;48.016;7.800;2023-07-09T02:57:24;15.50;;;14.50;;
1975;SDS011;988;48.016;7.800;2023-07-09T02:59:49;15.10;;;14.10;;
1975;SDS011;988;48.016;7.800;2023-07-09T03:02:15;14.80;;;13.80;;
1975;SDS011;988;48.016;7.800;2023-07-09T03:04:40;15.30;;;14.27;;
1975;SDS011;988;48.016;7.800;2023-07-09T03:07:06;15.00;;;14.10;;
1975;SDS011;988;48.016;7.800;2023-07-09T03:09:32;13.57;;;12.77;;
1975;SDS011;988;48.016;7.800;2023-07-09T03:11:57;14.50;;;13.30;;
1975;SDS011;988;48.016;7.800;2023-07-09T03:14:23;13.60;;;12.80;;
1975;SDS011;988;48.016;7.800;2023-07-09T03:16:49;15.03;;;13.50;;
1975;SDS011;988;48.016;7.800;2023-07-09T03:19:14;13.37;;;12.47;;
1975;SDS011;988;48.016;7.800;2023-07-09T03:21:40;14.60;;;13.50;;
1975;SDS011;988;48.016;7.800;2023-07-09T03:24:06;13.97;;;13.03;;
1975;SDS011;988;48.016;7.800;2023-07-09T03:26:32;14.37;;;13.30;;
1975;SDS011;988;48.016;7.800;2023-07-09T03:28:57;13.73;;;12.87;;
1975;SDS011;988;48.016;7.800;2023-07-09T03:31:23;13.57;;;12.70;;
1975;SDS011;988;48.016;7.800;2023-07-09T03:33:49;13.67;;;12.63;;
1975;SDS011;988;48.016;7.800;2023-07-09T03:36:16;13.90;;;12.93;;
1975;SDS011;988;48.016;7.800;2023-07-09T03:38:44;14.73;;;13.43;;
1975;SDS011;988;48.016;7.800;2023-07-09T03:41:10;12.07;;;11.37;;
1975;SDS011;988;48.016;7.800;2023-07-09T03:43:36;11.40;;;10.60;;
1975;SDS011;988;48.016;7.800;2023-07-09T03:46:01;12.17;;;11.37;;
1975;SDS011;988;48.016;7.800;2023-07-09T03:48:27;12.40;;;11.37;;
1975;SDS011;988;48.016;7.800;2023-07-09T03:50:53;13.60;;;12.60;;
1975;SDS011;988;48.016;7.800;2023-07-09T03:53:18;12.00;;;11.20;;
1975;SDS011;988;48.016;7.800;2023-07-09T03:55:51;12.90;;;12.10;;
1975;SDS011;988;48.016;7.800;2023-07-09T03:58:18;12.60;;;11.90;;
1975;SDS011;988;48.016;7.800;2023-07-09T04:00:44;12.43;;;11.63;;
1975;SDS011;988;48.016;7.800;2023-07-09T04:03:09;13.10;;;12.20;;
1975;SDS011;988;48.016;7.800;2023-07-09T04:05:36;12.83;;;11.97;;
1975;SDS011;988;48.016;7.800;2023-07-09T04:08:02;12.40;;;11.50;;
1975;SDS011;988;48.016;7.800;2023-07-09T04:10:28;13.40;;;12.30;;
1975;SDS011;988;48.016;7.800;2023-07-09T04:12:54;11.53;;;10.73;;
1975;SDS011;988;48.016;7.800;2023-07-09T04:15:19;11.83;;;10.93;;
1975;SDS011;988;48.016;7.800;2023-07-09T04:17:45;11.73;;;10.80;;
1975;SDS011;988;48.016;7.800;2023-07-09T04:20:11;11.67;;;10.87;;
1975;SDS011;988;48.016;7.800;2023-07-09T04:22:39;11.50;;;10.60;;
1975;SDS011;988;48.016;7.800;2023-07-09T04:25:05;11.30;;;10.60;;
1975;SDS011;988;48.016;7.800;2023-07-09T04:27:34;11.60;;;10.80;;
1975;SDS011;988;48.016;7.800;2023-07-09T04:30:00;11.53;;;10.67;;
1975;SDS011;988;48.016;7.800;2023-07-09T04:32:26;10.67;;;9.83;;
1975;SDS011;988;48.016;7.800;2023-07-09T04:34:52;10.63;;;9.70;;
1975;SDS011;988;48.016;7.800;2023-07-09T04:37:18;11.77;;;10.80;;
1975;SDS011;988;48.016;7.800;2023-07-09T04:39:44;11.67;;;10.67;;
1975;SDS011;988;48.016;7.800;2023-07-09T04:42:13;10.57;;;9.87;;
1975;SDS011;988;48.016;7.800;2023-07-09T04:44:40;12.03;;;10.80;;
1975;SDS011;988;48.016;7.800;2023-07-09T04:47:06;11.10;;;10.40;;
1975;SDS011;988;48.016;7.800;2023-07-09T04:49:32;13.10;;;12.10;;
1975;SDS011;988;48.016;7.800;2023-07-09T04:51:58;14.63;;;13.53;;
1975;SDS011;988;48.016;7.800;2023-07-09T04:54:24;14.40;;;13.30;;
1975;SDS011;988;48.016;7.800;2023-07-09T04:56:51;17.17;;;15.90;;
1975;SDS011;988;48.016;7.800;2023-07-09T04:59:18;16.57;;;15.40;;
1975;SDS011;988;48.016;7.800;2023-07-09T05:01:43;19.77;;;18.30;;
1975;SDS011;988;48.016;7.800;2023-07-09T05:04:09;22.80;;;21.00;;
1975;SDS011;988;48.016;7.800;2023-07-09T05:06:35;20.00;;;18.40;;
1975;SDS011;988;48.016;7.800;2023-07-09T05:09:00;17.33;;;15.17;;
1975;SDS011;988;48.016;7.800;2023-07-09T05:11:26;16.67;;;15.20;;
1975;SDS011;988;48.016;7.800;2023-07-09T05:13:51;14.97;;;13.80;;
1975;SDS011;988;48.016;7.800;2023-07-09T05:16:17;20.50;;;13.97;;
1975;SDS011;988;48.016;7.800;2023-07-09T05:18:44;17.60;;;14.77;;
1975;SDS011;988;48.016;7.800;2023-07-09T05:21:11;16.50;;;15.30;;
1975;SDS011;988;48.016;7.800;2023-07-09T05:23:37;16.43;;;15.17;;
1975;SDS011;988;48.016;7.800;2023-07-09T05:26:03;18.43;;;15.60;;
1975;SDS011;988;48.016;7.800;2023-07-09T05:28:29;15.87;;;14.63;;
1975;SDS011;988;48.016;7.800;2023-07-09T05:30:57;14.37;;;13.37;;
1975;SDS011;988;48.016;7.800;2023-07-09T05:33:23;15.00;;;14.00;;
1975;SDS011;988;48.016;7.800;2023-07-09T05:35:48;14.80;;;13.57;;
1975;SDS011;988;48.016;7.800;2023-07-09T05:38:14;15.47;;;14.33;;
1975;SDS011;988;48.016;7.800;2023-07-09T05:40:41;15.93;;;14.87;;
1975;SDS011;988;48.016;7.800;2023-07-09T05:43:07;16.17;;;14.83;;
1975;SDS011;988;48.016;7.800;2023-07-09T05:45:33;15.67;;;14.70;;
1975;SDS011;988;48.016;7.800;2023-07-09T05:47:59;15.80;;;14.80;;
1975;SDS011;988;48.016;7.800;2023-07-09T05:50:25;15.60;;;14.70;;
1975;SDS011;988;48.016;7.800;2023-07-09T05:52:51;15.63;;;14.60;;
1975;SDS011;988;48.016;7.800;2023-07-09T05:55:17;16.53;;;15.40;;
1975;SDS011;988;48.016;7.800;2023-07-09T05:57:42;15.30;;;14.40;;
1975;SDS011;988;48.016;7.800;2023-07-09T06:00:08;17.20;;;16.00;;
1975;SDS011;988;48.016;7.800;2023-07-09T06:02:34;15.90;;;14.70;;
1975;SDS011;988;48.016;7.800;2023-07-09T06:05:00;16.73;;;15.33;;
1975;SDS011;988;48.016;7.800;2023-07-09T06:07:26;15.97;;;15.07;;
1975;SDS011;988;48.016;7.800;2023-07-09T06:09:52;17.07;;;15.80;;
1975;SDS011;988;48.016;7.800;2023-07-09T06:12:18;16.67;;;15.77;;
1975;SDS011;988;48.016;7.800;2023-07-09T06:14:44;18.50;;;17.30;;
1975;SDS011;988;48.016;7.800;2023-07-09T06:17:13;18.00;;;16.77;;
1975;SDS011;988;48.016;7.800;2023-07-09T06:19:38;18.37;;;17.23;;
1975;SDS011;988;48.016;7.800;2023-07-09T06:22:04;16.70;;;15.80;;
1975;SDS011;988;48.016;7.800;2023-07-09T06:24:30;17.73;;;16.73;;
1975;SDS011;988;48.016;7.800;2023-07-09T06:26:56;18.30;;;17.27;;
1975;SDS011;988;48.016;7.800;2023-07-09T06:29:22;19.40;;;18.13;;
1975;SDS011;988;48.016;7.800;2023-07-09T06:31:48;19.30;;;18.10;;
1975;SDS011;988;48.016;7.800;2023-07-09T06:34:13;19.60;;;18.40;;
1975;SDS011;988;48.016;7.800;2023-07-09T06:36:39;21.07;;;19.80;;
1975;SDS011;988;48.016;7.800;2023-07-09T06:39:05;19.83;;;18.60;;
1975;SDS011;988;48.016;7.800;2023-07-09T06:41:30;20.10;;;18.60;;
1975;SDS011;988;48.016;7.800;2023-07-09T06:43:57;19.40;;;18.20;;
1975;SDS011;988;48.016;7.800;2023-07-09T06:46:23;19.50;;;18.27;;
1975;SDS011;988;48.016;7.800;2023-07-09T06:48:49;19.47;;;18.27;;
1975;SDS011;988;48.016;7.800;2023-07-09T06:51:14;19.60;;;18.50;;
1975;SDS011;988;48.016;7.800;2023-07-09T06:53:40;19.50;;;18.40;;
1975;SDS011;988;48.016;7.800;2023-07-09T06:56:07;20.00;;;18.80;;
1975;SDS011;988;48.016;7.800;2023-07-09T06:58:34;21.00;;;19.50;;
1975;SDS011;988;48.016;7.800;2023-07-09T07:01:01;19.53;;;18.43;;
1975;SDS011;988;48.016;7.800;2023-07-09T07:03:31;19.87;;;18.80;;
1975;SDS011;988;48.016;7.800;2023-07-09T07:05:57;20.77;;;19.53;;
1975;SDS011;988;48.016;7.800;2023-07-09T07:08:24;20.23;;;19.13;;
1975;SDS011;988;48.016;7.800;2023-07-09T07:10:50;20.57;;;19.47;;
1975;SDS011;988;48.016;7.800;2023-07-09T07:13:26;20.70;;;19.40;;
1975;SDS011;988;48.016;7.800;2023-07-09T07:15:55;20.37;;;18.93;;
1975;SDS011;988;48.016;7.800;2023-07-09T07:18:21;20.63;;;19.23;;
1975;SDS011;988;48.016;7.800;2023-07-09T07:20:47;20.60;;;18.63;;
1975;SDS011;988;48.016;7.800;2023-07-09T07:23:12;20.87;;;19.50;;
1975;SDS011;988;48.016;7.800;2023-07-09T07:25:38;19.80;;;18.70;;
1975;SDS011;988;48.016;7.800;2023-07-09T07:28:04;21.03;;;19.83;;
1975;SDS011;988;48.016;7.800;2023-07-09T07:30:29;19.80;;;18.67;;
1975;SDS011;988;48.016;7.800;2023-07-09T07:32:55;20.30;;;19.00;;
1975;SDS011;988;48.016;7.800;2023-07-09T07:35:21;19.40;;;18.20;;
1975;SDS011;988;48.016;7.800;2023-07-09T07:37:46;20.20;;;19.03;;
1975;SDS011;988;48.016;7.800;2023-07-09T07:40:12;20.10;;;19.00;;
1975;SDS011;988;48.016;7.800;2023-07-09T07:42:38;20.47;;;19.10;;
1975;SDS011;988;48.016;7.800;2023-07-09T07:45:04;20.40;;;19.10;;
1975;SDS011;988;48.016;7.800;2023-07-09T07:47:30;20.67;;;19.17;;
1975;SDS011;988;48.016;7.800;2023-07-09T07:49:56;21.20;;;19.50;;
1975;SDS011;988;48.016;7.800;2023-07-09T07:52:22;21.63;;;19.90;;
1975;SDS011;988;48.016;7.800;2023-07-09T07:54:48;21.60;;;19.90;;
1975;SDS011;988;48.016;7.800;2023-07-09T07:57:14;21.20;;;20.00;;
1975;SDS011;988;48.016;7.800;2023-07-09T07:59:39;21.83;;;20.63;;
1975;SDS011;988;48.016;7.800;2023-07-09T08:02:05;22.27;;;20.90;;
1975;SDS011;988;48.016;7.800;2023-07-09T08:04:35;22.57;;;21.27;;
1975;SDS011;988;48.016;7.800;2023-07-09T08:07:01;21.53;;;20.40;;
1975;SDS011;988;48.016;7.800;2023-07-09T08:09:26;22.80;;;21.20;;
1975;SDS011;988;48.016;7.800;2023-07-09T08:11:52;22.83;;;21.63;;
1975;SDS011;988;48.016;7.800;2023-07-09T08:14:18;23.90;;;22.40;;
1975;SDS011;988;48.016;7.800;2023-07-09T08:16:44;23.77;;;22.47;;
1975;SDS011;988;48.016;7.800;2023-07-09T08:19:09;24.90;;;23.60;;
1975;SDS011;988;48.016;7.800;2023-07-09T08:21:35;24.80;;;23.47;;
1975;SDS011;988;48.016;7.800;2023-07-09T08:24:01;24.13;;;22.93;;
1975;SDS011;988;48.016;7.800;2023-07-09T08:26:26;25.37;;;23.53;;
1975;SDS011;988;48.016;7.800;2023-07-09T08:28:53;26.47;;;24.93;;
1975;SDS011;988;48.016;7.800;2023-07-09T08:31:19;25.13;;;23.63;;
1975;SDS011;988;48.016;7.800;2023-07-09T08:33:46;24.37;;;23.17;;
1975;SDS011;988;48.016;7.800;2023-07-09T08:36:12;24.80;;;23.50;;
1975;SDS011;988;48.016;7.800;2023-07-09T08:38:38;24.00;;;22.60;;
1975;SDS011;988;48.016;7.800;2023-07-09T08:41:07;24.03;;;22.77;;
1975;SDS011;988;48.016;7.800;2023-07-09T08:46:17;25.13;;;23.83;;
1975;SDS011;988;48.016;7.800;2023-07-09T08:48:51;23.97;;;22.40;;
1975;SDS011;988;48.016;7.800;2023-07-09T08:53:57;26.27;;;24.88;;
1975;SDS011;988;48.016;7.800;2023-07-09T08:56:25;27.50;;;25.95;;
1975;SDS011;988;48.016;7.800;2023-07-09T08:58:52;26.00;;;24.50;;
1975;SDS011;988;48.016;7.800;2023-07-09T09:01:24;25.42;;;23.83;;
1975;SDS011;988;48.016;7.800;2023-07-09T09:04:07;23.63;;;22.27;;
1975;SDS011;988;48.016;7.800;2023-07-09T09:06:43;25.50;;;24.10;;
1975;SDS011;988;48.016;7.800;2023-07-09T09:12:24;24.92;;;23.52;;
1975;SDS011;988;48.016;7.800;2023-07-09T09:15:14;26.67;;;25.10;;
1975;SDS011;988;48.016;7.800;2023-07-09T09:17:42;25.13;;;23.63;;
1975;SDS011;988;48.016;7.800;2023-07-09T09:20:09;23.70;;;22.50;;
1975;SDS011;988;48.016;7.800;2023-07-09T09:22:46;25.25;;;23.95;;
1975;SDS011;988;48.016;7.800;2023-07-09T09:25:31;24.63;;;23.15;;
1975;SDS011;988;48.016;7.800;2023-07-09T09:28:00;22.95;;;21.75;;
1975;SDS011;988;48.016;7.800;2023-07-09T09:30:26;26.63;;;25.30;;
1975;SDS011;988;48.016;7.800;2023-07-09T09:32:54;26.75;;;25.27;;
1975;SDS011;988;48.016;7.800;2023-07-09T09:35:42;26.92;;;25.55;;
1975;SDS011;988;48.016;7.800;2023-07-09T09:38:27;26.23;;;24.83;;
1975;SDS011;988;48.016;7.800;2023-07-09T09:40:58;25.90;;;24.52;;
1975;SDS011;988;48.016;7.800;2023-07-09T09:43:24;26.05;;;24.75;;
1975;SDS011;988;48.016;7.800;2023-07-09T09:45:58;26.85;;;25.45;;
1975;SDS011;988;48.016;7.800;2023-07-09T09:48:27;27.23;;;25.83;;
1975;SDS011;988;48.016;7.800;2023-07-09T09:50:55;26.38;;;24.98;;
1975;SDS011;988;48.016;7.800;2023-07-09T09:53:25;25.58;;;24.27;;
1975;SDS011;988;48.016;7.800;2023-07-09T09:55:53;26.65;;;25.25;;
1975;SDS011;988;48.016;7.800;2023-07-09T09:58:24;27.08;;;25.48;;
1975;SDS011;988;48.016;7.800;2023-07-09T10:00:53;28.75;;;27.25;;
1975;SDS011;988;48.016;7.800;2023-07-09T10:03:21;28.83;;;27.08;;
1975;SDS011;988;48.016;7.800;2023-07-09T10:05:57;28.83;;;27.02;;
1975;SDS011;988;48.016;7.800;2023-07-09T10:14:25;29.63;;;28.02;;
1975;SDS011;988;48.016;7.800;2023-07-09T10:16:53;30.05;;;28.65;;
1975;SDS011;988;48.016;7.800;2023-07-09T10:22:16;29.10;;;27.50;;
1975;SDS011;988;48.016;7.800;2023-07-09T10:25:19;29.58;;;28.08;;
1975;SDS011;988;48.016;7.800;2023-07-09T10:33:12;28.70;;;27.25;;
1975;SDS011;988;48.016;7.800;2023-07-09T10:41:22;27.23;;;25.73;;
1975;SDS011;988;48.016;7.800;2023-07-09T10:44:13;28.17;;;26.45;;
1975;SDS011;988;48.016;7.800;2023-07-09T10:46:50;27.33;;;25.83;;
1975;SDS011;988;48.016;7.800;2023-07-09T10:49:21;28.80;;;27.40;;
1975;SDS011;988;48.016;7.800;2023-07-09T10:51:54;28.35;;;26.95;;
1975;SDS011;988;48.016;7.800;2023-07-09T10:54:29;28.77;;;27.17;;
1975;SDS011;988;48.016;7.800;2023-07-09T11:00:19;29.35;;;27.35;;
1975;SDS011;988;48.016;7.800;2023-07-09T11:02:51;28.83;;;27.15;;
1975;SDS011;988;48.016;7.800;2023-07-09T11:05:27;28.98;;;27.55;;
1975;SDS011;988;48.016;7.800;2023-07-09T11:10:44;29.23;;;27.55;;
1975;SDS011;988;48.016;7.800;2023-07-09T11:15:55;28.58;;;27.08;;
1975;SDS011;988;48.016;7.800;2023-07-09T11:18:26;29.08;;;27.30;;
1975;SDS011;988;48.016;7.800;2023-07-09T11:20:59;27.92;;;26.42;;
1975;SDS011;988;48.016;7.800;2023-07-09T11:23:47;29.60;;;28.10;;
1975;SDS011;988;48.016;7.800;2023-07-09T11:26:20;28.48;;;27.00;;
1975;SDS011;988;48.016;7.800;2023-07-09T11:28:50;29.92;;;28.35;;
1975;SDS011;988;48.016;7.800;2023-07-09T11:31:20;30.67;;;29.08;;
1975;SDS011;988;48.016;7.800;2023-07-09T11:33:47;30.70;;;28.30;;
1975;SDS011;988;48.016;7.800;2023-07-09T11:36:27;29.45;;;27.83;;
1975;SDS011;988;48.016;7.800;2023-07-09T11:38:55;29.02;;;27.52;;
1975;SDS011;988;48.016;7.800;2023-07-09T11:46:35;28.38;;;26.90;;
1975;SDS011;988;48.016;7.800;2023-07-09T11:49:06;29.17;;;27.45;;
1975;SDS011;988;48.016;7.800;2023-07-09T11:51:37;30.42;;;28.83;;
1975;SDS011;988;48.016;7.800;2023-07-09T11:54:13;30.65;;;28.77;;
1975;SDS011;988;48.016;7.800;2023-07-09T11:56:38;28.75;;;26.98;;
1975;SDS011;988;48.016;7.800;2023-07-09T11:59:04;30.00;;;28.40;;
1975;SDS011;988;48.016;7.800;2023-07-09T12:01:38;30.52;;;29.00;;
1975;SDS011;988;48.016;7.800;2023-07-09T12:04:16;29.42;;;27.83;;
1975;SDS011;988;48.016;7.800;2023-07-09T12:06:44;31.90;;;29.83;;
1975;SDS011;988;48.016;7.800;2023-07-09T12:09:20;30.98;;;29.20;;
1975;SDS011;988;48.016;7.800;2023-07-09T12:11:47;29.48;;;27.83;;
1975;SDS011;988;48.016;7.800;2023-07-09T12:14:18;27.67;;;26.10;;
1975;SDS011;988;48.016;7.800;2023-07-09T12:16:49;29.90;;;28.23;;
1975;SDS011;988;48.016;7.800;2023-07-09T12:19:18;28.43;;;26.63;;
1975;SDS011;988;48.016;7.800;2023-07-09T12:21:46;26.87;;;25.27;;
1975;SDS011;988;48.016;7.800;2023-07-09T12:27:00;30.50;;;28.43;;
1975;SDS011;988;48.016;7.800;2023-07-09T12:29:27;28.70;;;26.97;;
1975;SDS011;988;48.016;7.800;2023-07-09T12:31:57;27.27;;;25.67;;
1975;SDS011;988;48.016;7.800;2023-07-09T12:34:23;28.40;;;26.90;;
1975;SDS011;988;48.016;7.800;2023-07-09T12:36:50;26.67;;;25.30;;
1975;SDS011;988;48.016;7.800;2023-07-09T12:39:21;27.52;;;25.50;;
1975;SDS011;988;48.016;7.800;2023-07-09T12:41:50;26.97;;;25.17;;
1975;SDS011;988;48.016;7.800;2023-07-09T12:44:21;27.73;;;26.23;;
1975;SDS011;988;48.016;7.800;2023-07-09T12:46:49;28.87;;;26.87;;
1975;SDS011;988;48.016;7.800;2023-07-09T12:49:20;28.63;;;27.03;;
1975;SDS011;988;48.016;7.800;2023-07-09T12:51:51;27.25;;;25.75;;
1975;SDS011;988;48.016;7.800;2023-07-09T12:54:19;28.75;;;26.98;;
1975;SDS011;988;48.016;7.800;2023-07-09T12:56:46;27.48;;;26.05;;
1975;SDS011;988;48.016;7.800;2023-07-09T12:59:19;28.30;;;26.75;;
1975;SDS011;988;48.016;7.800;2023-07-09T13:01:50;30.00;;;28.20;;
1975;SDS011;988;48.016;7.800;2023-07-09T13:04:20;29.00;;;27.42;;
1975;SDS011;988;48.016;7.800;2023-07-09T13:06:47;28.27;;;26.70;;
1975;SDS011;988;48.016;7.800;2023-07-09T13:09:21;28.47;;;26.67;;
1975;SDS011;988;48.016;7.800;2023-07-09T13:11:47;27.15;;;25.55;;
1975;SDS011;988;48.016;7.800;2023-07-09T13:14:18;26.95;;;25.55;;
1975;SDS011;988;48.016;7.800;2023-07-09T13:16:46;26.77;;;25.27;;
1975;SDS011;988;48.016;7.800;2023-07-09T13:19:12;26.70;;;25.20;;
1975;SDS011;988;48.016;7.800;2023-07-09T13:21:38;25.57;;;24.27;;
1975;SDS011;988;48.016;7.800;2023-07-09T13:24:19;25.90;;;24.63;;
1975;SDS011;988;48.016;7.800;2023-07-09T13:26:47;25.27;;;23.90;;
1975;SDS011;988;48.016;7.800;2023-07-09T13:29:14;26.17;;;24.73;;
1975;SDS011;988;48.016;7.800;2023-07-09T13:31:42;27.30;;;25.90;;
1975;SDS011;988;48.016;7.800;2023-07-09T13:34:15;27.53;;;26.03;;
1975;SDS011;988;48.016;7.800;2023-07-09T13:36:44;27.20;;;25.20;;
1975;SDS011;988;48.016;7.800;2023-07-09T13:39:11;25.80;;;24.40;;
1975;SDS011;988;48.016;7.800;2023-07-09T13:41:38;25.93;;;24.40;;
1975;SDS011;988;48.016;7.800;2023-07-09T13:44:08;25.40;;;24.07;;
1975;SDS011;988;48.016;7.800;2023-07-09T13:46:46;26.77;;;25.27;;
1975;SDS011;988;48.016;7.800;2023-07-09T13:49:16;25.30;;;24.03;;
1975;SDS011;988;48.016;7.800;2023-07-09T13:51:43;26.80;;;25.30;;
1975;SDS011;988;48.016;7.800;2023-07-09T13:54:29;26.30;;;24.90;;
1975;SDS011;988;48.016;7.800;2023-07-09T13:57:03;27.53;;;26.03;;
1975;SDS011;988;48.016;7.800;2023-07-09T13:59:31;27.00;;;25.40;;
1975;SDS011;988;48.016;7.800;2023-07-09T14:01:57;26.80;;;25.30;;
1975;SDS011;988;48.016;7.800;2023-07-09T14:04:24;27.53;;;26.03;;
1975;SDS011;988;48.016;7.800;2023-07-09T14:06:51;25.47;;;24.07;;
1975;SDS011;988;48.016;7.800;2023-07-09T14:09:17;27.00;;;25.30;;
1975;SDS011;988;48.016;7.800;2023-07-09T14:11:47;27.07;;;25.33;;
1975;SDS011;988;48.016;7.800;2023-07-09T14:16:40;27.67;;;26.03;;
1975;SDS011;988;48.016;7.800;2023-07-09T14:19:08;27.80;;;26.20;;
1975;SDS011;988;48.016;7.800;2023-07-09T14:21:41;27.17;;;25.53;;
1975;SDS011;988;48.016;7.800;2023-07-09T14:24:12;27.20;;;25.70;;
1975;SDS011;988;48.016;7.800;2023-07-09T14:26:54;27.80;;;26.17;;
1975;SDS011;988;48.016;7.800;2023-07-09T14:29:22;28.00;;;26.00;;
1975;SDS011;988;48.016;7.800;2023-07-09T14:31:48;26.73;;;25.33;;
1975;SDS011;988;48.016;7.800;2023-07-09T14:34:27;27.63;;;26.00;;
1975;SDS011;988;48.016;7.800;2023-07-09T14:36:55;27.80;;;26.30;;
1975;SDS011;988;48.016;7.800;2023-07-09T14:39:22;26.43;;;24.83;;
1975;SDS011;988;48.016;7.800;2023-07-09T14:41:49;24.97;;;23.30;;
1975;SDS011;988;48.016;7.800;2023-07-09T14:46:51;26.03;;;24.27;;
1975;SDS011;988;48.016;7.800;2023-07-09T14:49:19;24.80;;;23.07;;
1975;SDS011;988;48.016;7.800;2023-07-09T14:51:45;24.80;;;23.20;;
1975;SDS011;988;48.016;7.800;2023-07-09T14:56:54;24.60;;;23.00;;
1975;SDS011;988;48.016;7.800;2023-07-09T14:59:23;23.77;;;22.47;;
1975;SDS011;988;48.016;7.800;2023-07-09T15:01:50;24.00;;;22.50;;
1975;SDS011;988;48.016;7.800;2023-07-09T15:06:51;24.60;;;23.20;;
1975;SDS011;988;48.016;7.800;2023-07-09T15:09:22;23.63;;;22.13;;
1975;SDS011;988;48.016;7.800;2023-07-09T15:11:52;23.40;;;21.70;;
1975;SDS011;988;48.016;7.800;2023-07-09T15:14:20;23.60;;;22.20;;
1975;SDS011;988;48.016;7.800;2023-07-09T15:16:46;26.27;;;24.70;;
1975;SDS011;988;48.016;7.800;2023-07-09T15:19:15;24.37;;;22.47;;
1975;SDS011;988;48.016;7.800;2023-07-09T15:21:41;23.17;;;21.87;;
1975;SDS011;988;48.016;7.800;2023-07-09T15:24:11;22.70;;;21.33;;
1975;SDS011;988;48.016;7.800;2023-07-09T15:26:49;22.57;;;21.10;;
1975;SDS011;988;48.016;7.800;2023-07-09T15:29:21;23.00;;;21.70;;
1975;SDS011;988;48.016;7.800;2023-07-09T15:31:47;22.20;;;21.00;;
1975;SDS011;988;48.016;7.800;2023-07-09T15:34:13;25.10;;;22.60;;
1975;SDS011;988;48.016;7.800;2023-07-09T15:36:40;22.63;;;21.43;;
1975;SDS011;988;48.016;7.800;2023-07-09T15:39:11;23.07;;;21.67;;
1975;SDS011;988;48.016;7.800;2023-07-09T15:41:37;23.27;;;21.97;;
1975;SDS011;988;48.016;7.800;2023-07-09T15:44:04;22.80;;;21.40;;
1975;SDS011;988;48.016;7.800;2023-07-09T15:46:29;22.70;;;21.50;;
1975;SDS011;988;48.016;7.800;2023-07-09T15:48:55;22.67;;;21.20;;
1975;SDS011;988;48.016;7.800;2023-07-09T15:51:21;23.27;;;21.73;;
1975;SDS011;988;48.016;7.800;2023-07-09T15:53:47;23.40;;;22.00;;
1975;SDS011;988;48.016;7.800;2023-07-09T15:58:52;23.13;;;21.57;;
1975;SDS011;988;48.016;7.800;2023-07-09T16:01:18;22.10;;;20.70;;
1975;SDS011;988;48.016;7.800;2023-07-09T16:03:48;22.50;;;21.20;;
1975;SDS011;988;48.016;7.800;2023-07-09T16:06:19;22.83;;;20.87;;
1975;SDS011;988;48.016;7.800;2023-07-09T16:08:45;22.93;;;21.53;;
1975;SDS011;988;48.016;7.800;2023-07-09T16:13:40;24.03;;;22.30;;
1975;SDS011;988;48.016;7.800;2023-07-09T16:16:08;23.00;;;21.43;;